createdAt,value
2018-10-05T00:00:07.212Z,64.00
2018-10-05T00:02:34.991Z,64.00
2018-10-05T00:05:02.601Z,63.80
2018-10-05T00:07:30.508Z,63.90
2018-10-05T00:09:58.065Z,63.70
2018-10-05T00:12:25.714Z,64.00
2018-10-05T00:14:53.361Z,63.70
2018-10-05T00:17:20.912Z,63.50
2018-10-05T00:19:48.914Z,63.40
2018-10-05T00:22:16.578Z,63.40
2018-10-05T00:24:44.256Z,63.30
2018-10-05T00:27:11.946Z,63.40
2018-10-05T00:29:39.778Z,63.40
2018-10-05T00:32:07.543Z,63.30
2018-10-05T00:34:35.213Z,64.00
2018-10-05T00:37:02.789Z,63.20
2018-10-05T00:39:30.373Z,63.20
2018-10-05T00:41:57.963Z,63.20
2018-10-05T00:44:25.493Z,63.10
2018-10-05T00:46:53.086Z,63.20
2018-10-05T00:49:20.691Z,63.10
2018-10-05T00:51:48.264Z,63.20
2018-10-05T00:54:15.912Z,63.20
2018-10-05T00:56:43.540Z,63.10
2018-10-05T00:59:11.272Z,63.20
2018-10-05T01:01:39.270Z,63.20
2018-10-05T01:04:08.078Z,63.10
2018-10-05T01:06:36.078Z,63.20
2018-10-05T01:09:05.079Z,63.10
2018-10-05T01:11:33.019Z,63.20
2018-10-05T01:14:00.625Z,63.20
2018-10-05T01:16:28.188Z,63.20
2018-10-05T01:18:55.815Z,63.30
2018-10-05T01:21:23.348Z,63.10
2018-10-05T01:23:50.970Z,63.30
2018-10-05T01:26:18.532Z,63.30
2018-10-05T01:28:46.377Z,63.20
2018-10-05T01:31:14.077Z,63.20
2018-10-05T01:33:41.923Z,63.20
2018-10-05T01:36:09.725Z,63.10
2018-10-05T01:38:37.661Z,63.20
2018-10-05T01:41:05.678Z,63.20
2018-10-05T01:43:33.339Z,63.10
2018-10-05T01:46:01.266Z,64.30
2018-10-05T01:48:28.959Z,63.50
2018-10-05T01:50:56.547Z,63.60
2018-10-05T01:53:24.141Z,63.50
2018-10-05T01:55:51.708Z,63.40
2018-10-05T01:58:19.257Z,63.40
2018-10-05T02:00:46.864Z,63.40
2018-10-05T02:03:14.657Z,63.30
2018-10-05T02:05:42.509Z,63.60
2018-10-05T02:08:10.527Z,63.60
2018-10-05T02:10:38.535Z,63.70
2018-10-05T02:13:06.551Z,63.60
2018-10-05T02:15:34.203Z,63.60
2018-10-05T02:18:01.869Z,63.70
2018-10-05T02:20:29.443Z,63.60
2018-10-05T02:22:57.020Z,63.70
2018-10-05T02:25:24.564Z,63.70
2018-10-05T02:27:53.223Z,63.70
2018-10-05T02:30:20.870Z,63.80
2018-10-05T02:32:48.467Z,63.80
2018-10-05T02:35:16.145Z,63.70
2018-10-05T02:37:43.947Z,63.70
2018-10-05T02:40:11.764Z,63.80
2018-10-05T02:42:39.905Z,63.80
2018-10-05T02:45:07.925Z,63.80
2018-10-05T02:47:35.881Z,63.80
2018-10-05T02:50:03.619Z,63.80
2018-10-05T02:52:31.200Z,63.80
2018-10-05T02:54:58.772Z,63.80
2018-10-05T02:57:26.386Z,63.80
2018-10-05T02:59:54.016Z,64.00
2018-10-05T03:02:27.208Z,64.30
2018-10-05T03:04:54.928Z,64.20
2018-10-05T03:07:22.504Z,64.20
2018-10-05T03:09:50.139Z,64.20
2018-10-05T03:12:17.833Z,64.20
2018-10-05T03:14:45.359Z,64.40
2018-10-05T03:17:13.211Z,64.20
2018-10-05T03:19:41.284Z,64.20
2018-10-05T03:22:09.254Z,64.30
2018-10-05T03:24:37.274Z,64.30
2018-10-05T03:27:05.103Z,64.60
2018-10-05T03:29:32.762Z,64.50
2018-10-05T03:32:00.424Z,64.50
2018-10-05T03:34:28.012Z,64.50
2018-10-05T03:36:56.137Z,64.40
2018-10-05T03:39:23.808Z,64.50
2018-10-05T03:41:51.379Z,64.50
2018-10-05T03:44:18.986Z,64.40
2018-10-05T03:46:46.603Z,64.40
2018-10-05T03:49:14.506Z,64.50
2018-10-05T03:51:42.490Z,64.50
2018-10-05T03:54:10.299Z,64.50
2018-10-05T03:56:38.175Z,64.60
2018-10-05T03:59:06.562Z,64.50
2018-10-05T04:01:34.573Z,64.50
2018-10-05T04:04:02.621Z,64.50
2018-10-05T04:06:30.379Z,64.80
2018-10-05T04:08:58.055Z,64.60
2018-10-05T04:11:25.698Z,64.80
2018-10-05T04:13:53.312Z,64.90
2018-10-05T04:16:20.851Z,65.00
2018-10-05T04:18:48.412Z,64.90
2018-10-05T04:21:15.986Z,64.90
2018-10-05T04:23:43.640Z,65.00
2018-10-05T04:26:11.316Z,65.00
2018-10-05T04:28:39.262Z,65.00
2018-10-05T04:31:07.487Z,65.10
2018-10-05T04:33:36.326Z,65.00
2018-10-05T04:36:03.909Z,65.00
2018-10-05T04:38:31.527Z,65.00
2018-10-05T04:40:59.269Z,65.00
2018-10-05T04:43:26.929Z,65.00
2018-10-05T04:45:54.489Z,65.10
2018-10-05T04:48:22.129Z,65.10
2018-10-05T04:50:49.736Z,65.10
2018-10-05T04:53:17.571Z,65.10
2018-10-05T04:55:45.115Z,65.20
2018-10-05T04:58:12.803Z,65.40
2018-10-05T05:00:40.730Z,65.30
2018-10-05T05:03:08.705Z,65.40
2018-10-05T05:05:36.648Z,65.50
2018-10-05T05:08:04.229Z,65.50
2018-10-05T05:10:31.856Z,65.50
2018-10-05T05:12:59.437Z,65.70
2018-10-05T05:15:27.012Z,65.70
2018-10-05T05:17:54.717Z,65.70
2018-10-05T05:20:22.247Z,65.70
2018-10-05T05:22:49.899Z,66.50
2018-10-05T05:25:17.433Z,65.70
2018-10-05T05:27:45.137Z,66.50
2018-10-05T05:30:12.929Z,65.70
2018-10-05T05:32:40.805Z,65.70
2018-10-05T05:35:08.643Z,65.60
2018-10-05T05:37:38.794Z,65.70
2018-10-05T05:40:06.996Z,65.70
2018-10-05T05:42:35.002Z,65.80
2018-10-05T05:45:02.675Z,65.60
2018-10-05T05:47:30.270Z,65.70
2018-10-05T05:49:57.897Z,65.80
2018-10-05T05:52:25.719Z,65.70
2018-10-05T05:54:53.303Z,65.80
2018-10-05T05:57:20.906Z,65.70
2018-10-05T05:59:48.584Z,65.70
2018-10-05T06:02:19.938Z,65.70
2018-10-05T06:04:47.924Z,65.90
2018-10-05T06:07:15.504Z,65.70
2018-10-05T06:09:43.317Z,65.70
2018-10-05T06:12:11.107Z,65.70
2018-10-05T06:14:39.206Z,65.70
2018-10-05T06:17:07.059Z,65.70
2018-10-05T06:19:34.942Z,65.60
2018-10-05T06:22:02.816Z,65.60
2018-10-05T06:24:30.259Z,65.60
2018-10-05T06:26:57.917Z,65.60
2018-10-05T06:29:25.535Z,65.60
2018-10-05T06:31:53.113Z,65.70
2018-10-05T06:34:20.782Z,65.60
2018-10-05T06:36:48.333Z,65.70
2018-10-05T06:39:15.954Z,65.70
2018-10-05T06:41:44.485Z,65.70
2018-10-05T06:44:13.039Z,65.70
2018-10-05T06:46:44.187Z,65.70
2018-10-05T06:49:12.350Z,65.70
2018-10-05T06:51:40.120Z,65.60
2018-10-05T06:54:07.980Z,65.70
2018-10-05T06:56:35.930Z,65.70
2018-10-05T06:59:03.666Z,65.80
2018-10-05T07:01:31.370Z,65.70
2018-10-05T07:03:59.081Z,65.80
2018-10-05T07:06:26.628Z,65.80
2018-10-05T07:08:54.244Z,65.90
2018-10-05T07:11:21.825Z,65.90
2018-10-05T07:13:49.364Z,65.90
2018-10-05T07:16:16.915Z,65.90
2018-10-05T07:18:44.592Z,65.80
2018-10-05T07:21:12.409Z,65.80
2018-10-05T07:23:40.139Z,65.80
2018-10-05T07:26:08.194Z,65.90
2018-10-05T07:28:36.169Z,65.90
2018-10-05T07:31:03.805Z,65.90
2018-10-05T07:33:31.387Z,65.90
2018-10-05T07:35:59.087Z,66.00
2018-10-05T07:38:26.696Z,66.00
2018-10-05T07:40:54.394Z,66.10
2018-10-05T07:43:22.304Z,66.20
2018-10-05T07:45:49.877Z,66.20
2018-10-05T07:48:17.801Z,66.00
2018-10-05T07:50:45.451Z,65.70
2018-10-05T07:53:13.177Z,65.20
2018-10-05T07:55:40.836Z,64.60
2018-10-05T07:58:08.812Z,64.10
2018-10-05T08:00:36.647Z,63.70
2018-10-05T08:03:04.289Z,63.20
2018-10-05T08:05:31.865Z,63.00
2018-10-05T08:07:59.400Z,62.70
2018-10-05T08:10:27.077Z,62.50
2018-10-05T08:12:54.635Z,61.70
2018-10-05T08:15:22.285Z,62.00
2018-10-05T08:17:49.924Z,62.50
2018-10-05T08:20:17.507Z,62.30
2018-10-05T08:22:46.067Z,60.60
2018-10-05T08:25:13.656Z,61.20
2018-10-05T08:27:41.789Z,60.90
2018-10-05T08:30:09.834Z,61.40
2018-10-05T08:32:37.418Z,61.00
2018-10-05T08:35:04.969Z,60.30
2018-10-05T08:37:32.590Z,60.50
2018-10-05T08:40:00.281Z,60.70
2018-10-05T08:42:27.770Z,60.10
2018-10-05T08:44:55.321Z,59.80
2018-10-05T08:47:22.892Z,59.80
2018-10-05T08:49:50.704Z,59.80
2018-10-05T08:52:18.821Z,59.60
2018-10-05T08:54:46.550Z,59.60
2018-10-05T08:57:14.448Z,59.60
2018-10-05T08:59:42.101Z,59.60
2018-10-05T09:02:09.702Z,59.70
2018-10-05T09:04:37.359Z,59.70
2018-10-05T09:07:05.003Z,59.60
2018-10-05T09:09:32.548Z,59.60
2018-10-05T09:12:00.533Z,59.70
2018-10-05T09:14:28.134Z,59.80
2018-10-05T09:16:55.708Z,59.80
2018-10-05T09:19:23.568Z,59.90
2018-10-05T09:21:51.370Z,60.00
2018-10-05T09:24:19.514Z,60.10
2018-10-05T09:26:47.314Z,60.10
2018-10-05T09:29:15.204Z,60.10
2018-10-05T09:31:42.954Z,60.10
2018-10-05T09:34:10.680Z,60.10
2018-10-05T09:36:38.386Z,60.20
2018-10-05T09:39:06.278Z,60.20
2018-10-05T09:41:33.948Z,60.40
2018-10-05T09:44:01.842Z,60.40
2018-10-05T09:46:29.416Z,60.40
2018-10-05T09:48:57.048Z,60.40
2018-10-05T09:51:24.630Z,60.40
2018-10-05T09:53:52.368Z,60.50
2018-10-05T09:56:20.222Z,61.30
2018-10-05T09:58:48.096Z,60.60
2018-10-05T10:01:21.176Z,60.60
2018-10-05T10:03:48.916Z,60.60
2018-10-05T10:06:16.910Z,60.70
2018-10-05T10:08:45.225Z,60.70
2018-10-05T10:11:12.940Z,60.80
2018-10-05T10:13:40.553Z,60.80
2018-10-05T10:16:08.491Z,60.80
2018-10-05T10:18:36.029Z,60.80
2018-10-05T10:21:03.666Z,60.90
2018-10-05T10:23:31.290Z,60.80
2018-10-05T10:25:58.950Z,60.90
2018-10-05T10:28:26.537Z,60.90
2018-10-05T10:30:54.128Z,60.90
2018-10-05T10:33:21.663Z,61.00
2018-10-05T10:35:49.583Z,61.00
2018-10-05T10:38:17.268Z,61.00
2018-10-05T10:40:45.151Z,61.00
2018-10-05T10:43:12.725Z,61.00
2018-10-05T10:45:40.304Z,61.10
2018-10-05T10:48:08.007Z,61.00
2018-10-05T10:50:35.835Z,61.00
2018-10-05T10:53:03.470Z,61.00
2018-10-05T10:55:30.993Z,61.00
2018-10-05T10:57:58.575Z,61.00
2018-10-05T11:00:26.160Z,60.80
2018-10-05T11:02:53.941Z,60.80
2018-10-05T11:05:21.576Z,60.70
2018-10-05T11:07:49.306Z,60.70
2018-10-05T11:10:17.301Z,60.60
2018-10-05T11:12:45.178Z,60.70
2018-10-05T11:15:12.806Z,60.80
2018-10-05T11:17:40.382Z,60.80
2018-10-05T11:20:07.952Z,61.00
2018-10-05T11:22:35.521Z,61.00
2018-10-05T11:25:03.106Z,61.00
2018-10-05T11:27:36.848Z,61.00
2018-10-05T11:30:04.798Z,61.10
2018-10-05T11:32:32.348Z,61.10
2018-10-05T11:34:59.981Z,61.00
2018-10-05T11:37:27.843Z,61.00
2018-10-05T11:39:55.494Z,61.00
2018-10-05T11:42:23.221Z,60.90
2018-10-05T11:44:50.906Z,61.00
2018-10-05T11:47:18.721Z,60.90
2018-10-05T11:49:46.516Z,60.90
2018-10-05T11:52:14.293Z,61.00
2018-10-05T11:54:41.922Z,60.90
2018-10-05T11:57:09.612Z,61.00
2018-10-05T11:59:37.220Z,61.00
2018-10-05T12:02:04.841Z,61.00
2018-10-05T12:04:32.416Z,61.10
2018-10-05T12:07:00.102Z,61.10
2018-10-05T12:09:27.780Z,61.10
2018-10-05T12:11:55.519Z,61.20
2018-10-05T12:14:23.120Z,61.20
2018-10-05T12:16:50.822Z,61.10
2018-10-05T12:19:18.671Z,61.80
2018-10-05T12:21:46.639Z,60.80
2018-10-05T12:24:14.434Z,60.80
2018-10-05T12:26:42.029Z,60.80
2018-10-05T12:29:09.778Z,60.80
2018-10-05T12:31:37.390Z,60.70
2018-10-05T12:34:04.979Z,60.80
2018-10-05T12:36:32.556Z,60.80
2018-10-05T12:39:00.159Z,60.70
2018-10-05T12:41:27.942Z,60.80
2018-10-05T12:43:55.497Z,60.30
2018-10-05T12:46:23.175Z,60.80
2018-10-05T12:48:51.340Z,60.70
2018-10-05T12:51:19.009Z,60.00
2018-10-05T12:53:46.986Z,60.70
2018-10-05T12:56:15.109Z,60.70
2018-10-05T12:58:42.840Z,60.70
2018-10-05T13:01:10.793Z,60.80
2018-10-05T13:03:38.499Z,60.80
2018-10-05T13:06:06.126Z,60.70
2018-10-05T13:08:33.772Z,60.90
2018-10-05T13:11:01.323Z,60.80
2018-10-05T13:13:28.878Z,60.90
2018-10-05T13:15:56.475Z,60.90
2018-10-05T13:18:24.252Z,61.00
2018-10-05T13:20:51.944Z,61.00
2018-10-05T13:23:19.621Z,61.00
2018-10-05T13:25:47.235Z,61.00
2018-10-05T13:28:15.008Z,61.00
2018-10-05T13:30:42.584Z,60.90
2018-10-05T13:33:10.309Z,61.00
2018-10-05T13:35:38.081Z,61.00
2018-10-05T13:38:05.640Z,61.10
2018-10-05T13:40:33.252Z,61.10
2018-10-05T13:43:00.811Z,61.10
2018-10-05T13:45:28.366Z,61.10
2018-10-05T13:47:55.916Z,61.20
2018-10-05T13:50:23.861Z,61.20
2018-10-05T13:52:51.788Z,61.10
2018-10-05T13:55:19.640Z,61.10
2018-10-05T13:57:47.467Z,61.10
2018-10-05T14:00:15.586Z,61.10
2018-10-05T14:02:43.570Z,61.20
2018-10-05T14:05:11.170Z,61.10
2018-10-05T14:07:38.766Z,61.10
2018-10-05T14:10:06.295Z,61.20
2018-10-05T14:12:33.882Z,61.30
2018-10-05T14:15:01.421Z,61.20
2018-10-05T14:17:29.032Z,61.20
2018-10-05T14:19:56.683Z,61.20
2018-10-05T14:22:24.226Z,61.10
2018-10-05T14:24:51.883Z,61.10
2018-10-05T14:27:19.618Z,61.00
2018-10-05T14:29:47.191Z,61.00
2018-10-05T14:32:14.881Z,61.00
2018-10-05T14:34:42.573Z,61.00
2018-10-05T14:37:10.141Z,61.00
2018-10-05T14:39:37.775Z,60.90
2018-10-05T14:42:05.635Z,61.00
2018-10-05T14:44:33.247Z,61.70
2018-10-05T14:47:00.924Z,61.00
2018-10-05T14:49:28.638Z,61.00
2018-10-05T14:51:56.195Z,61.00
2018-10-05T14:54:23.756Z,61.10
2018-10-05T14:56:51.400Z,61.10
2018-10-05T14:59:19.012Z,61.10
2018-10-05T15:01:46.650Z,61.00
2018-10-05T15:04:14.311Z,61.10
2018-10-05T15:06:41.850Z,61.10
2018-10-05T15:09:09.412Z,61.10
2018-10-05T15:11:37.043Z,61.20
2018-10-05T15:14:05.718Z,61.30
2018-10-05T15:16:33.285Z,61.60
2018-10-05T15:19:00.887Z,61.70
2018-10-05T15:21:28.545Z,61.80
2018-10-05T15:23:56.031Z,61.90
2018-10-05T15:26:23.597Z,61.90
2018-10-05T15:28:51.589Z,61.80
2018-10-05T15:31:19.249Z,61.80
2018-10-05T15:33:46.961Z,61.90
2018-10-05T15:36:14.672Z,62.10
2018-10-05T15:38:42.231Z,62.00
2018-10-05T15:41:09.787Z,62.00
2018-10-05T15:43:37.744Z,62.10
2018-10-05T15:46:07.242Z,62.10
2018-10-05T15:48:35.242Z,62.20
2018-10-05T15:51:03.552Z,62.40
2018-10-05T15:53:31.533Z,62.50
2018-10-05T15:55:59.150Z,62.70
2018-10-05T15:58:26.981Z,62.80
2018-10-05T16:00:54.611Z,62.80
2018-10-05T16:03:22.638Z,63.00
2018-10-05T16:05:50.396Z,62.70
2018-10-05T16:08:18.036Z,62.40
2018-10-05T16:10:45.827Z,62.10
2018-10-05T16:13:13.995Z,61.90
2018-10-05T16:15:41.896Z,61.50
2018-10-05T16:18:10.098Z,61.70
2018-10-05T16:20:37.633Z,62.40
2018-10-05T16:23:05.219Z,61.60
2018-10-05T16:25:32.852Z,61.60
2018-10-05T16:28:00.891Z,61.60
2018-10-05T16:30:28.637Z,61.50
2018-10-05T16:32:56.205Z,61.50
2018-10-05T16:35:23.805Z,61.50
2018-10-05T16:37:51.505Z,61.50
2018-10-05T16:40:19.091Z,61.50
2018-10-05T16:42:46.754Z,61.50
2018-10-05T16:45:14.487Z,61.50
2018-10-05T16:47:42.212Z,61.40
2018-10-05T16:50:09.914Z,61.50
2018-10-05T16:52:37.506Z,61.50
2018-10-05T16:55:05.092Z,61.40
2018-10-05T16:57:32.667Z,61.40
2018-10-05T17:00:00.533Z,61.40
2018-10-05T17:02:28.156Z,61.50
2018-10-05T17:04:55.696Z,61.40
2018-10-05T17:07:23.232Z,61.40
2018-10-05T17:09:50.896Z,61.40
2018-10-05T17:12:18.466Z,61.50
2018-10-05T17:14:46.120Z,61.50
2018-10-05T17:17:13.956Z,61.40
2018-10-05T17:19:41.706Z,61.40
2018-10-05T17:24:43.535Z,61.40
2018-10-05T17:27:11.241Z,61.40
2018-10-05T17:29:39.038Z,61.40
2018-10-05T17:32:06.668Z,61.40
2018-10-05T17:34:34.232Z,61.40
2018-10-05T17:37:01.835Z,61.40
2018-10-05T17:39:29.424Z,61.50
2018-10-05T17:41:57.164Z,61.50
2018-10-05T17:44:24.778Z,61.50
2018-10-05T17:46:52.377Z,61.50
2018-10-05T17:49:20.025Z,61.40
2018-10-05T17:51:47.645Z,61.40
2018-10-05T17:54:15.336Z,61.40
2018-10-05T17:56:43.029Z,61.40
2018-10-05T17:59:10.743Z,61.40
2018-10-05T18:01:38.425Z,61.40
2018-10-05T18:04:06.060Z,61.40
2018-10-05T18:06:33.655Z,61.40
2018-10-05T18:09:01.202Z,61.40
2018-10-05T18:11:28.760Z,61.40
2018-10-05T18:13:56.341Z,61.40
2018-10-05T18:16:24.256Z,61.40
2018-10-05T18:18:51.915Z,61.40
2018-10-05T18:21:19.544Z,61.40
2018-10-05T18:23:47.183Z,61.40
2018-10-05T18:26:15.104Z,61.40
2018-10-05T18:28:42.826Z,61.40
2018-10-05T18:31:10.705Z,61.40
2018-10-05T18:33:38.282Z,61.40
2018-10-05T18:36:05.834Z,61.40
2018-10-05T18:38:33.461Z,61.40
2018-10-05T18:41:01.024Z,60.90
2018-10-05T18:43:28.624Z,61.30
2018-10-05T18:45:56.189Z,61.40
2018-10-05T18:48:24.020Z,61.30
2018-10-05T18:50:51.754Z,61.30
2018-10-05T18:53:19.404Z,61.30
2018-10-05T18:55:47.032Z,61.30
2018-10-05T18:58:14.727Z,61.40
2018-10-05T19:00:42.367Z,61.40
2018-10-05T19:03:10.396Z,61.40
2018-10-05T19:05:38.104Z,61.30
2018-10-05T19:08:06.005Z,61.30
2018-10-05T19:10:33.537Z,61.40
2018-10-05T19:13:01.078Z,61.30
2018-10-05T19:15:28.693Z,62.00
2018-10-05T19:17:56.272Z,61.20
2018-10-05T19:20:23.882Z,61.10
2018-10-05T19:22:51.501Z,61.10
2018-10-05T19:25:19.131Z,61.10
2018-10-05T19:27:47.873Z,61.00
2018-10-05T19:30:15.623Z,61.10
2018-10-05T19:32:43.491Z,61.00
2018-10-05T19:35:11.197Z,61.10
2018-10-05T19:37:38.808Z,61.10
2018-10-05T19:40:06.480Z,61.10
2018-10-05T19:42:34.260Z,61.00
2018-10-05T19:45:01.824Z,61.10
2018-10-05T19:47:29.671Z,61.10
2018-10-05T19:49:57.221Z,61.00
2018-10-05T19:52:24.877Z,61.00
2018-10-05T19:54:52.524Z,61.00
2018-10-05T19:57:20.152Z,60.90
2018-10-05T19:59:47.912Z,60.90
2018-10-05T20:02:16.013Z,60.80
2018-10-05T20:04:43.693Z,60.80
2018-10-05T20:07:13.565Z,60.80
2018-10-05T20:09:41.299Z,60.90
2018-10-05T20:12:08.926Z,60.80
2018-10-05T20:14:36.594Z,60.90
2018-10-05T20:17:04.182Z,60.80
2018-10-05T20:19:31.773Z,60.80
2018-10-05T20:21:59.327Z,60.70
2018-10-05T20:24:27.092Z,60.60
2018-10-05T20:26:54.521Z,60.70
2018-10-05T20:29:22.219Z,60.60
2018-10-05T20:31:49.898Z,60.50
2018-10-05T20:34:17.505Z,61.10
2018-10-05T20:36:45.382Z,60.60
2018-10-05T20:39:13.014Z,60.50
2018-10-05T20:41:41.594Z,60.50
2018-10-05T20:44:09.229Z,60.40
2018-10-05T20:46:37.764Z,60.50
2018-10-05T20:49:05.355Z,60.50
2018-10-05T20:51:33.103Z,60.40
2018-10-05T20:54:00.834Z,60.50
2018-10-05T20:56:28.638Z,60.40
2018-10-05T20:58:56.200Z,60.40
2018-10-05T21:01:35.080Z,60.30
2018-10-05T21:04:02.662Z,60.30
2018-10-05T21:06:30.285Z,60.40
2018-10-05T21:08:57.829Z,60.50
2018-10-05T21:11:25.426Z,60.50
2018-10-05T21:13:53.030Z,60.50
2018-10-05T21:16:20.657Z,60.60
2018-10-05T21:18:48.218Z,60.70
2018-10-05T21:21:15.839Z,60.70
2018-10-05T21:23:43.696Z,60.70
2018-10-05T21:26:11.492Z,60.80
2018-10-05T21:28:39.149Z,60.90
2018-10-05T21:31:06.758Z,60.90
2018-10-05T21:33:34.374Z,61.00
2018-10-05T21:36:01.936Z,61.00
2018-10-05T21:38:29.476Z,61.00
2018-10-05T21:40:57.110Z,61.10
2018-10-05T21:43:24.685Z,61.90
2018-10-05T21:45:52.220Z,61.00
2018-10-05T21:48:19.948Z,61.00
2018-10-05T21:50:47.733Z,61.10
2018-10-05T21:53:15.492Z,61.10
2018-10-05T21:55:43.269Z,61.10
2018-10-05T21:58:11.010Z,61.20
2018-10-05T22:00:42.976Z,61.10
2018-10-05T22:03:11.559Z,61.10
2018-10-05T22:05:39.276Z,61.20
2018-10-05T22:08:06.850Z,61.20
2018-10-05T22:10:34.470Z,61.20
2018-10-05T22:13:02.045Z,61.20
2018-10-05T22:15:29.684Z,61.10
2018-10-05T22:17:57.249Z,61.20
2018-10-05T22:20:24.922Z,61.20
2018-10-05T22:22:52.505Z,61.20
2018-10-05T22:25:27.405Z,61.20
2018-10-05T22:27:54.987Z,61.20
2018-10-05T22:30:22.564Z,61.20
2018-10-05T22:32:50.238Z,61.20
2018-10-05T22:35:17.846Z,61.20
2018-10-05T22:37:45.469Z,61.20
2018-10-05T22:40:13.179Z,61.40
2018-10-05T22:42:40.939Z,61.20
2018-10-05T22:45:08.507Z,61.30
2018-10-05T22:47:36.084Z,61.30
2018-10-05T22:50:03.771Z,61.30
2018-10-05T22:52:31.362Z,61.30
2018-10-05T22:54:58.924Z,61.20
2018-10-05T22:57:26.608Z,61.20
2018-10-05T22:59:54.192Z,62.00
2018-10-05T23:02:21.856Z,61.20
2018-10-05T23:04:49.773Z,61.30
2018-10-05T23:07:17.532Z,61.30
2018-10-05T23:09:45.167Z,61.30
2018-10-05T23:12:13.494Z,61.30
2018-10-05T23:14:41.234Z,61.30
2018-10-05T23:17:08.991Z,61.30
2018-10-05T23:19:36.600Z,61.40
2018-10-05T23:22:04.315Z,61.40
2018-10-05T23:24:31.905Z,61.50
2018-10-05T23:26:59.531Z,61.40
2018-10-05T23:29:27.254Z,61.50
2018-10-05T23:31:54.859Z,61.50
2018-10-05T23:34:22.514Z,61.60
2018-10-05T23:36:50.213Z,61.60
2018-10-05T23:39:21.847Z,61.60
2018-10-05T23:41:49.472Z,61.50
2018-10-05T23:44:17.278Z,61.60
2018-10-05T23:46:45.168Z,61.80
2018-10-05T23:49:13.706Z,61.80
2018-10-05T23:51:41.998Z,61.80
2018-10-05T23:54:09.704Z,61.80
2018-10-05T23:56:37.320Z,61.80
2018-10-05T23:59:05.118Z,61.80
